sensor_id;sensor_type;location;lat;lon;timestamp;temperature;humidity
12504;DHT22;6316;48.118;-1.690;2024-03-02T00:02:11;6.60;99.90
12504;DHT22;6316;48.118;-1.690;2024-03-02T00:04:37;6.50;99.90
12504;DHT22;6316;48.118;-1.690;2024-03-02T00:07:03;6.50;99.90
12504;DHT22;6316;48.118;-1.690;2024-03-02T00:09:29;6.50;99.90
12504;DHT22;6316;48.118;-1.690;2024-03-02T00:11:55;6.60;99.90
12504;DHT22;6316;48.118;-1.690;2024-03-02T00:14:20;6.60;99.90
12504;DHT22;6316;48.118;-1.690;2024-03-02T00:16:46;6.60;99.90
12504;DHT22;6316;48.118;-1.690;2024-03-02T00:19:12;6.70;99.90
12504;DHT22;6316;48.118;-1.690;2024-03-02T00:21:38;6.80;99.90
12504;DHT22;6316;48.118;-1.690;2024-03-02T00:24:39;6.60;99.90
12504;DHT22;6316;48.118;-1.690;2024-03-02T00:27:05;6.70;99.90
12504;DHT22;6316;48.118;-1.690;2024-03-02T00:29:32;6.50;99.90
12504;DHT22;6316;48.118;-1.690;2024-03-02T00:31:58;6.60;99.90
12504;DHT22;6316;48.118;-1.690;2024-03-02T00:34:24;6.60;99.90
12504;DHT22;6316;48.118;-1.690;2024-03-02T00:36:50;6.60;99.90
12504;DHT22;6316;48.118;-1.690;2024-03-02T00:39:16;6.60;99.90
12504;DHT22;6316;48.118;-1.690;2024-03-02T00:41:43;6.60;99.90
12504;DHT22;6316;48.118;-1.690;2024-03-02T00:44:16;6.60;99.90
12504;DHT22;6316;48.118;-1.690;2024-03-02T00:46:44;6.60;99.90
12504;DHT22;6316;48.118;-1.690;2024-03-02T00:49:18;6.60;99.90
12504;DHT22;6316;48.118;-1.690;2024-03-02T00:51:47;6.70;99.90
12504;DHT22;6316;48.118;-1.690;2024-03-02T00:54:22;6.70;99.90
12504;DHT22;6316;48.118;-1.690;2024-03-02T00:56:49;6.70;99.90
12504;DHT22;6316;48.118;-1.690;2024-03-02T00:59:15;6.70;99.90
12504;DHT22;6316;48.118;-1.690;2024-03-02T01:01:41;6.60;99.90
12504;DHT22;6316;48.118;-1.690;2024-03-02T01:04:07;6.70;99.90
12504;DHT22;6316;48.118;-1.690;2024-03-02T01:06:33;6.90;99.90
12504;DHT22;6316;48.118;-1.690;2024-03-02T01:09:00;6.80;99.90
12504;DHT22;6316;48.118;-1.690;2024-03-02T01:11:25;6.90;99.90
12504;DHT22;6316;48.118;-1.690;2024-03-02T01:13:51;7.00;99.90
12504;DHT22;6316;48.118;-1.690;2024-03-02T01:16:17;7.00;99.90
12504;DHT22;6316;48.118;-1.690;2024-03-02T01:18:43;7.00;99.90
12504;DHT22;6316;48.118;-1.690;2024-03-02T01:21:09;7.10;99.90
12504;DHT22;6316;48.118;-1.690;2024-03-02T01:23:35;7.20;99.90
12504;DHT22;6316;48.118;-1.690;2024-03-02T01:26:00;7.10;99.90
12504;DHT22;6316;48.118;-1.690;2024-03-02T01:28:26;7.00;99.90
12504;DHT22;6316;48.118;-1.690;2024-03-02T01:30:51;7.00;99.90
12504;DHT22;6316;48.118;-1.690;2024-03-02T01:33:18;7.00;99.90
12504;DHT22;6316;48.118;-1.690;2024-03-02T01:35:44;7.00;99.90
12504;DHT22;6316;48.118;-1.690;2024-03-02T01:38:10;6.90;99.90
12504;DHT22;6316;48.118;-1.690;2024-03-02T01:40:37;6.90;99.90
12504;DHT22;6316;48.118;-1.690;2024-03-02T01:43:04;6.90;99.90
12504;DHT22;6316;48.118;-1.690;2024-03-02T01:45:30;6.90;99.90
12504;DHT22;6316;48.118;-1.690;2024-03-02T01:47:56;7.00;99.90
12504;DHT22;6316;48.118;-1.690;2024-03-02T01:50:29;6.80;99.90
12504;DHT22;6316;48.118;-1.690;2024-03-02T01:52:56;6.80;99.90
12504;DHT22;6316;48.118;-1.690;2024-03-02T01:55:22;6.80;99.90
12504;DHT22;6316;48.118;-1.690;2024-03-02T01:57:49;6.80;99.90
12504;DHT22;6316;48.118;-1.690;2024-03-02T02:00:19;6.90;99.90
12504;DHT22;6316;48.118;-1.690;2024-03-02T02:02:49;6.80;99.90
12504;DHT22;6316;48.118;-1.690;2024-03-02T02:05:15;6.90;99.90
12504;DHT22;6316;48.118;-1.690;2024-03-02T02:07:41;6.90;99.90
12504;DHT22;6316;48.118;-1.690;2024-03-02T02:10:08;6.90;99.90
12504;DHT22;6316;48.118;-1.690;2024-03-02T02:12:35;6.90;99.90
12504;DHT22;6316;48.118;-1.690;2024-03-02T02:15:01;6.90;99.90
12504;DHT22;6316;48.118;-1.690;2024-03-02T02:17:26;6.90;99.90
12504;DHT22;6316;48.118;-1.690;2024-03-02T02:19:52;7.00;99.90
12504;DHT22;6316;48.118;-1.690;2024-03-02T02:22:18;7.00;99.90
12504;DHT22;6316;48.118;-1.690;2024-03-02T02:24:43;7.10;99.90
12504;DHT22;6316;48.118;-1.690;2024-03-02T02:27:09;7.10;99.90
12504;DHT22;6316;48.118;-1.690;2024-03-02T02:29:40;7.20;99.90
12504;DHT22;6316;48.118;-1.690;2024-03-02T02:32:06;7.10;99.90
12504;DHT22;6316;48.118;-1.690;2024-03-02T02:34:32;7.20;99.90
12504;DHT22;6316;48.118;-1.690;2024-03-02T02:36:58;7.20;99.90
12504;DHT22;6316;48.118;-1.690;2024-03-02T02:39:24;7.20;99.90
12504;DHT22;6316;48.118;-1.690;2024-03-02T02:41:50;7.30;99.90
12504;DHT22;6316;48.118;-1.690;2024-03-02T02:44:15;7.20;99.90
12504;DHT22;6316;48.118;-1.690;2024-03-02T02:46:41;7.00;99.90
12504;DHT22;6316;48.118;-1.690;2024-03-02T02:49:07;7.10;99.90
12504;DHT22;6316;48.118;-1.690;2024-03-02T02:51:32;7.00;99.90
12504;DHT22;6316;48.118;-1.690;2024-03-02T02:53:58;7.00;99.90
12504;DHT22;6316;48.118;-1.690;2024-03-02T02:56:24;7.10;99.90
12504;DHT22;6316;48.118;-1.690;2024-03-02T02:58:50;7.00;99.90
12504;DHT22;6316;48.118;-1.690;2024-03-02T03:01:16;7.00;99.90
12504;DHT22;6316;48.118;-1.690;2024-03-02T03:03:46;7.10;99.90
12504;DHT22;6316;48.118;-1.690;2024-03-02T03:06:12;7.00;99.90
12504;DHT22;6316;48.118;-1.690;2024-03-02T03:08:38;6.90;99.90
12504;DHT22;6316;48.118;-1.690;2024-03-02T03:11:04;6.90;99.90
12504;DHT22;6316;48.118;-1.690;2024-03-02T03:13:31;7.00;99.90
12504;DHT22;6316;48.118;-1.690;2024-03-02T03:15:56;7.00;99.90
12504;DHT22;6316;48.118;-1.690;2024-03-02T03:18:22;7.00;99.90
12504;DHT22;6316;48.118;-1.690;2024-03-02T03:20:48;7.00;99.90
12504;DHT22;6316;48.118;-1.690;2024-03-02T03:23:13;7.00;99.90
12504;DHT22;6316;48.118;-1.690;2024-03-02T03:25:43;7.00;99.90
12504;DHT22;6316;48.118;-1.690;2024-03-02T03:28:09;6.90;99.90
12504;DHT22;6316;48.118;-1.690;2024-03-02T03:30:38;7.00;99.90
12504;DHT22;6316;48.118;-1.690;2024-03-02T03:33:04;7.10;99.90
12504;DHT22;6316;48.118;-1.690;2024-03-02T03:35:33;7.00;99.90
12504;DHT22;6316;48.118;-1.690;2024-03-02T03:37:59;7.00;99.90
12504;DHT22;6316;48.118;-1.690;2024-03-02T03:40:25;7.00;99.90
12504;DHT22;6316;48.118;-1.690;2024-03-02T03:42:51;7.00;99.90
12504;DHT22;6316;48.118;-1.690;2024-03-02T03:45:17;7.00;99.90
12504;DHT22;6316;48.118;-1.690;2024-03-02T03:47:42;7.10;99.90
12504;DHT22;6316;48.118;-1.690;2024-03-02T03:50:09;7.10;99.90
12504;DHT22;6316;48.118;-1.690;2024-03-02T03:52:34;7.00;99.90
12504;DHT22;6316;48.118;-1.690;2024-03-02T03:55:00;7.10;99.90
12504;DHT22;6316;48.118;-1.690;2024-03-02T03:57:26;7.10;99.90
12504;DHT22;6316;48.118;-1.690;2024-03-02T03:59:52;7.10;99.90
12504;DHT22;6316;48.118;-1.690;2024-03-02T04:02:18;7.00;99.90
12504;DHT22;6316;48.118;-1.690;2024-03-02T04:04:44;7.00;99.90
12504;DHT22;6316;48.118;-1.690;2024-03-02T04:07:09;7.10;99.90
12504;DHT22;6316;48.118;-1.690;2024-03-02T04:09:35;7.00;99.90
12504;DHT22;6316;48.118;-1.690;2024-03-02T04:12:00;7.00;99.90
12504;DHT22;6316;48.118;-1.690;2024-03-02T04:14:26;7.00;99.90
12504;DHT22;6316;48.118;-1.690;2024-03-02T04:16:52;7.00;99.90
12504;DHT22;6316;48.118;-1.690;2024-03-02T04:19:18;7.00;99.90
12504;DHT22;6316;48.118;-1.690;2024-03-02T04:21:43;6.90;99.90
12504;DHT22;6316;48.118;-1.690;2024-03-02T04:24:09;6.80;99.90
12504;DHT22;6316;48.118;-1.690;2024-03-02T04:26:34;6.90;99.90
12504;DHT22;6316;48.118;-1.690;2024-03-02T04:29:00;6.80;99.90
12504;DHT22;6316;48.118;-1.690;2024-03-02T04:31:25;6.80;99.90
12504;DHT22;6316;48.118;-1.690;2024-03-02T04:33:51;6.70;99.90
12504;DHT22;6316;48.118;-1.690;2024-03-02T04:36:17;6.80;99.90
12504;DHT22;6316;48.118;-1.690;2024-03-02T04:38:42;6.70;99.90
12504;DHT22;6316;48.118;-1.690;2024-03-02T04:41:08;6.70;99.90
12504;DHT22;6316;48.118;-1.690;2024-03-02T04:43:34;6.70;99.90
12504;DHT22;6316;48.118;-1.690;2024-03-02T04:46:00;6.60;99.90
12504;DHT22;6316;48.118;-1.690;2024-03-02T04:48:26;6.70;99.90
12504;DHT22;6316;48.118;-1.690;2024-03-02T04:50:52;6.70;99.90
12504;DHT22;6316;48.118;-1.690;2024-03-02T04:53:17;6.70;99.90
12504;DHT22;6316;48.118;-1.690;2024-03-02T04:55:43;6.70;99.90
12504;DHT22;6316;48.118;-1.690;2024-03-02T04:58:09;6.60;99.90
12504;DHT22;6316;48.118;-1.690;2024-03-02T05:00:35;6.70;99.90
12504;DHT22;6316;48.118;-1.690;2024-03-02T05:03:01;6.90;99.90
12504;DHT22;6316;48.118;-1.690;2024-03-02T05:05:27;6.70;99.90
12504;DHT22;6316;48.118;-1.690;2024-03-02T05:07:53;6.80;99.90
12504;DHT22;6316;48.118;-1.690;2024-03-02T05:10:18;6.80;99.90
12504;DHT22;6316;48.118;-1.690;2024-03-02T05:12:44;6.90;99.90
12504;DHT22;6316;48.118;-1.690;2024-03-02T05:15:11;6.90;99.90
12504;DHT22;6316;48.118;-1.690;2024-03-02T05:17:37;6.90;99.90
12504;DHT22;6316;48.118;-1.690;2024-03-02T05:20:04;6.90;99.90
12504;DHT22;6316;48.118;-1.690;2024-03-02T05:22:30;6.90;99.90
12504;DHT22;6316;48.118;-1.690;2024-03-02T05:24:56;7.00;99.90
12504;DHT22;6316;48.118;-1.690;2024-03-02T05:27:22;6.90;99.90
12504;DHT22;6316;48.118;-1.690;2024-03-02T05:29:47;7.00;99.90
12504;DHT22;6316;48.118;-1.690;2024-03-02T05:32:13;6.90;99.90
12504;DHT22;6316;48.118;-1.690;2024-03-02T05:34:39;6.90;99.90
12504;DHT22;6316;48.118;-1.690;2024-03-02T05:37:04;6.90;99.90
12504;DHT22;6316;48.118;-1.690;2024-03-02T05:39:30;6.90;99.90
12504;DHT22;6316;48.118;-1.690;2024-03-02T05:41:55;6.90;99.90
12504;DHT22;6316;48.118;-1.690;2024-03-02T05:44:21;6.80;99.90
12504;DHT22;6316;48.118;-1.690;2024-03-02T05:46:48;6.90;99.90
12504;DHT22;6316;48.118;-1.690;2024-03-02T05:49:13;6.90;99.90
12504;DHT22;6316;48.118;-1.690;2024-03-02T05:51:39;6.80;99.90
12504;DHT22;6316;48.118;-1.690;2024-03-02T05:54:05;6.80;99.90
12504;DHT22;6316;48.118;-1.690;2024-03-02T05:56:30;6.90;99.90
12504;DHT22;6316;48.118;-1.690;2024-03-02T05:58:56;6.80;99.90
12504;DHT22;6316;48.118;-1.690;2024-03-02T06:01:45;6.90;99.90
12504;DHT22;6316;48.118;-1.690;2024-03-02T06:04:12;6.90;99.90
12504;DHT22;6316;48.118;-1.690;2024-03-02T06:06:38;6.90;99.90
12504;DHT22;6316;48.118;-1.690;2024-03-02T06:09:05;7.00;99.90
12504;DHT22;6316;48.118;-1.690;2024-03-02T06:11:36;6.90;99.90
12504;DHT22;6316;48.118;-1.690;2024-03-02T06:14:05;6.90;99.90
12504;DHT22;6316;48.118;-1.690;2024-03-02T06:16:30;6.90;99.90
12504;DHT22;6316;48.118;-1.690;2024-03-02T06:18:56;6.90;99.90
12504;DHT22;6316;48.118;-1.690;2024-03-02T06:21:25;7.10;99.90
12504;DHT22;6316;48.118;-1.690;2024-03-02T06:23:51;7.00;99.90
12504;DHT22;6316;48.118;-1.690;2024-03-02T06:26:16;7.00;99.90
12504;DHT22;6316;48.118;-1.690;2024-03-02T06:28:42;7.10;99.90
12504;DHT22;6316;48.118;-1.690;2024-03-02T06:31:08;7.00;99.90
12504;DHT22;6316;48.118;-1.690;2024-03-02T06:33:34;6.90;99.90
12504;DHT22;6316;48.118;-1.690;2024-03-02T06:36:00;6.90;99.90
12504;DHT22;6316;48.118;-1.690;2024-03-02T06:38:26;6.90;99.90
12504;DHT22;6316;48.118;-1.690;2024-03-02T06:40:51;6.80;99.90
12504;DHT22;6316;48.118;-1.690;2024-03-02T06:43:17;6.90;99.90
12504;DHT22;6316;48.118;-1.690;2024-03-02T06:45:43;7.00;99.90
12504;DHT22;6316;48.118;-1.690;2024-03-02T06:48:08;6.90;99.90
12504;DHT22;6316;48.118;-1.690;2024-03-02T06:50:34;6.90;99.90
12504;DHT22;6316;48.118;-1.690;2024-03-02T06:53:00;6.80;99.90
12504;DHT22;6316;48.118;-1.690;2024-03-02T06:55:25;6.90;99.90
12504;DHT22;6316;48.118;-1.690;2024-03-02T06:57:51;6.80;99.90
12504;DHT22;6316;48.118;-1.690;2024-03-02T07:00:18;6.80;99.90
12504;DHT22;6316;48.118;-1.690;2024-03-02T07:02:45;6.80;99.90
12504;DHT22;6316;48.118;-1.690;2024-03-02T07:05:11;7.00;99.90
12504;DHT22;6316;48.118;-1.690;2024-03-02T07:07:37;6.90;99.90
12504;DHT22;6316;48.118;-1.690;2024-03-02T07:10:04;6.80;99.90
12504;DHT22;6316;48.118;-1.690;2024-03-02T07:12:30;6.90;99.90
12504;DHT22;6316;48.118;-1.690;2024-03-02T07:14:57;6.90;99.90
12504;DHT22;6316;48.118;-1.690;2024-03-02T07:17:29;7.00;99.90
12504;DHT22;6316;48.118;-1.690;2024-03-02T07:19:55;7.00;99.90
12504;DHT22;6316;48.118;-1.690;2024-03-02T07:22:20;7.00;99.90
12504;DHT22;6316;48.118;-1.690;2024-03-02T07:24:46;6.90;99.90
12504;DHT22;6316;48.118;-1.690;2024-03-02T07:27:49;7.00;99.90
12504;DHT22;6316;48.118;-1.690;2024-03-02T07:30:15;6.90;99.90
12504;DHT22;6316;48.118;-1.690;2024-03-02T07:32:41;6.90;99.90
12504;DHT22;6316;48.118;-1.690;2024-03-02T07:35:13;6.90;99.90
12504;DHT22;6316;48.118;-1.690;2024-03-02T07:37:40;6.90;99.90
12504;DHT22;6316;48.118;-1.690;2024-03-02T07:40:06;6.90;99.90
12504;DHT22;6316;48.118;-1.690;2024-03-02T07:42:35;6.90;99.90
12504;DHT22;6316;48.118;-1.690;2024-03-02T07:45:00;7.00;99.90
12504;DHT22;6316;48.118;-1.690;2024-03-02T07:47:26;6.90;99.90
12504;DHT22;6316;48.118;-1.690;2024-03-02T07:49:52;7.00;99.90
12504;DHT22;6316;48.118;-1.690;2024-03-02T07:52:17;7.10;99.90
12504;DHT22;6316;48.118;-1.690;2024-03-02T07:54:43;7.30;99.90
12504;DHT22;6316;48.118;-1.690;2024-03-02T07:57:09;7.30;99.90
12504;DHT22;6316;48.118;-1.690;2024-03-02T07:59:36;7.40;99.90
12504;DHT22;6316;48.118;-1.690;2024-03-02T08:02:02;7.50;99.90
12504;DHT22;6316;48.118;-1.690;2024-03-02T08:04:28;7.60;99.90
12504;DHT22;6316;48.118;-1.690;2024-03-02T08:06:53;7.70;99.90
12504;DHT22;6316;48.118;-1.690;2024-03-02T08:09:20;7.70;99.90
12504;DHT22;6316;48.118;-1.690;2024-03-02T08:11:45;7.70;99.90
12504;DHT22;6316;48.118;-1.690;2024-03-02T08:14:11;7.70;99.90
12504;DHT22;6316;48.118;-1.690;2024-03-02T08:16:36;7.70;99.90
12504;DHT22;6316;48.118;-1.690;2024-03-02T08:19:02;7.70;99.90
12504;DHT22;6316;48.118;-1.690;2024-03-02T08:21:28;7.70;99.90
12504;DHT22;6316;48.118;-1.690;2024-03-02T08:23:57;7.70;99.90
12504;DHT22;6316;48.118;-1.690;2024-03-02T08:26:23;7.70;99.90
12504;DHT22;6316;48.118;-1.690;2024-03-02T08:28:49;7.70;99.90
12504;DHT22;6316;48.118;-1.690;2024-03-02T08:31:15;7.70;99.90
12504;DHT22;6316;48.118;-1.690;2024-03-02T08:33:40;7.70;99.90
12504;DHT22;6316;48.118;-1.690;2024-03-02T08:36:06;7.70;99.90
12504;DHT22;6316;48.118;-1.690;2024-03-02T08:38:32;7.70;99.90
12504;DHT22;6316;48.118;-1.690;2024-03-02T08:40:58;7.60;99.90
12504;DHT22;6316;48.118;-1.690;2024-03-02T08:43:24;7.70;99.90
12504;DHT22;6316;48.118;-1.690;2024-03-02T08:45:50;7.60;99.90
12504;DHT22;6316;48.118;-1.690;2024-03-02T08:48:16;7.50;99.90
12504;DHT22;6316;48.118;-1.690;2024-03-02T08:50:42;7.60;99.90
12504;DHT22;6316;48.118;-1.690;2024-03-02T08:53:07;7.50;99.90
12504;DHT22;6316;48.118;-1.690;2024-03-02T08:55:33;7.40;99.90
12504;DHT22;6316;48.118;-1.690;2024-03-02T08:58:00;7.50;99.90
12504;DHT22;6316;48.118;-1.690;2024-03-02T09:00:25;7.50;99.90
12504;DHT22;6316;48.118;-1.690;2024-03-02T09:02:51;7.50;99.90
12504;DHT22;6316;48.118;-1.690;2024-03-02T09:05:17;7.50;99.90
12504;DHT22;6316;48.118;-1.690;2024-03-02T09:07:43;7.70;99.90
12504;DHT22;6316;48.118;-1.690;2024-03-02T09:10:09;7.60;99.90
12504;DHT22;6316;48.118;-1.690;2024-03-02T09:12:35;7.60;99.90
12504;DHT22;6316;48.118;-1.690;2024-03-02T09:15:01;7.60;99.90
12504;DHT22;6316;48.118;-1.690;2024-03-02T09:17:29;7.70;99.90
12504;DHT22;6316;48.118;-1.690;2024-03-02T09:19:55;7.70;99.90
12504;DHT22;6316;48.118;-1.690;2024-03-02T09:22:21;7.70;99.90
12504;DHT22;6316;48.118;-1.690;2024-03-02T09:24:47;7.60;99.90
12504;DHT22;6316;48.118;-1.690;2024-03-02T09:27:12;7.60;99.90
12504;DHT22;6316;48.118;-1.690;2024-03-02T09:29:38;7.70;99.90
12504;DHT22;6316;48.118;-1.690;2024-03-02T09:32:05;7.60;99.90
12504;DHT22;6316;48.118;-1.690;2024-03-02T09:34:31;7.80;99.90
12504;DHT22;6316;48.118;-1.690;2024-03-02T09:36:57;7.80;99.90
12504;DHT22;6316;48.118;-1.690;2024-03-02T09:39:23;7.80;99.90
12504;DHT22;6316;48.118;-1.690;2024-03-02T09:41:51;8.00;99.90
12504;DHT22;6316;48.118;-1.690;2024-03-02T09:44:17;8.00;99.90
12504;DHT22;6316;48.118;-1.690;2024-03-02T09:46:43;8.10;99.90
12504;DHT22;6316;48.118;-1.690;2024-03-02T09:49:12;8.20;99.90
12504;DHT22;6316;48.118;-1.690;2024-03-02T09:51:38;8.30;99.90
12504;DHT22;6316;48.118;-1.690;2024-03-02T09:54:07;8.30;99.90
12504;DHT22;6316;48.118;-1.690;2024-03-02T09:56:33;8.40;99.90
12504;DHT22;6316;48.118;-1.690;2024-03-02T09:58:59;8.40;99.90
12504;DHT22;6316;48.118;-1.690;2024-03-02T10:01:25;8.40;99.90
12504;DHT22;6316;48.118;-1.690;2024-03-02T10:03:51;8.50;99.90
12504;DHT22;6316;48.118;-1.690;2024-03-02T10:06:21;8.50;99.90
12504;DHT22;6316;48.118;-1.690;2024-03-02T10:08:47;8.60;99.90
12504;DHT22;6316;48.118;-1.690;2024-03-02T10:16:37;8.90;99.90
12504;DHT22;6316;48.118;-1.690;2024-03-02T10:19:19;8.90;99.90
12504;DHT22;6316;48.118;-1.690;2024-03-02T10:21:49;9.00;99.90
12504;DHT22;6316;48.118;-1.690;2024-03-02T10:24:16;9.00;99.90
12504;DHT22;6316;48.118;-1.690;2024-03-02T10:26:42;9.10;99.90
12504;DHT22;6316;48.118;-1.690;2024-03-02T10:29:12;9.00;99.90
12504;DHT22;6316;48.118;-1.690;2024-03-02T10:31:43;9.10;99.90
12504;DHT22;6316;48.118;-1.690;2024-03-02T10:34:10;9.20;99.90
12504;DHT22;6316;48.118;-1.690;2024-03-02T10:36:37;9.10;99.90
12504;DHT22;6316;48.118;-1.690;2024-03-02T10:39:06;9.20;99.90
12504;DHT22;6316;48.118;-1.690;2024-03-02T10:41:37;9.30;99.90
12504;DHT22;6316;48.118;-1.690;2024-03-02T10:44:05;9.30;99.90
12504;DHT22;6316;48.118;-1.690;2024-03-02T10:46:32;9.40;99.90
12504;DHT22;6316;48.118;-1.690;2024-03-02T10:48:59;9.60;99.90
12504;DHT22;6316;48.118;-1.690;2024-03-02T10:51:26;9.70;99.90
12504;DHT22;6316;48.118;-1.690;2024-03-02T10:53:54;9.80;99.90
12504;DHT22;6316;48.118;-1.690;2024-03-02T10:56:31;9.90;99.90
12504;DHT22;6316;48.118;-1.690;2024-03-02T10:59:27;9.90;99.90
12504;DHT22;6316;48.118;-1.690;2024-03-02T11:01:57;10.00;99.90
12504;DHT22;6316;48.118;-1.690;2024-03-02T11:04:29;10.10;99.90
12504;DHT22;6316;48.118;-1.690;2024-03-02T11:09:33;10.20;99.90
12504;DHT22;6316;48.118;-1.690;2024-03-02T11:12:19;10.20;99.90
12504;DHT22;6316;48.118;-1.690;2024-03-02T11:14:45;10.30;99.90
12504;DHT22;6316;48.118;-1.690;2024-03-02T11:17:13;10.40;99.90
12504;DHT22;6316;48.118;-1.690;2024-03-02T11:19:41;10.50;99.90
12504;DHT22;6316;48.118;-1.690;2024-03-02T11:22:08;10.70;99.90
12504;DHT22;6316;48.118;-1.690;2024-03-02T11:24:34;10.80;99.90
12504;DHT22;6316;48.118;-1.690;2024-03-02T11:32:16;11.10;99.90
12504;DHT22;6316;48.118;-1.690;2024-03-02T11:34:47;11.20;99.90
12504;DHT22;6316;48.118;-1.690;2024-03-02T11:37:18;11.40;99.90
12504;DHT22;6316;48.118;-1.690;2024-03-02T11:39:46;11.60;99.90
12504;DHT22;6316;48.118;-1.690;2024-03-02T11:42:13;11.80;99.90
12504;DHT22;6316;48.118;-1.690;2024-03-02T11:44:44;11.90;99.90
12504;DHT22;6316;48.118;-1.690;2024-03-02T11:47:15;11.90;99.90
12504;DHT22;6316;48.118;-1.690;2024-03-02T11:49:43;11.90;99.90
12504;DHT22;6316;48.118;-1.690;2024-03-02T11:52:14;11.80;99.90
12504;DHT22;6316;48.118;-1.690;2024-03-02T11:54:47;11.80;99.90
12504;DHT22;6316;48.118;-1.690;2024-03-02T11:57:18;11.70;99.90
12504;DHT22;6316;48.118;-1.690;2024-03-02T11:59:45;11.60;99.90
12504;DHT22;6316;48.118;-1.690;2024-03-02T12:02:18;11.50;99.90
12504;DHT22;6316;48.118;-1.690;2024-03-02T12:04:45;11.50;99.90
12504;DHT22;6316;48.118;-1.690;2024-03-02T12:07:12;11.50;99.90
12504;DHT22;6316;48.118;-1.690;2024-03-02T12:09:40;11.60;99.90
12504;DHT22;6316;48.118;-1.690;2024-03-02T12:14:33;11.80;99.90
12504;DHT22;6316;48.118;-1.690;2024-03-02T12:17:00;12.00;99.90
12504;DHT22;6316;48.118;-1.690;2024-03-02T12:19:26;12.10;99.90
12504;DHT22;6316;48.118;-1.690;2024-03-02T12:21:53;12.20;99.90
12504;DHT22;6316;48.118;-1.690;2024-03-02T12:24:20;12.20;99.90
12504;DHT22;6316;48.118;-1.690;2024-03-02T12:26:46;12.30;99.90
12504;DHT22;6316;48.118;-1.690;2024-03-02T12:29:13;12.30;99.90
12504;DHT22;6316;48.118;-1.690;2024-03-02T12:31:40;12.30;99.90
12504;DHT22;6316;48.118;-1.690;2024-03-02T12:34:07;12.40;99.90
12504;DHT22;6316;48.118;-1.690;2024-03-02T12:36:39;12.30;99.90
12504;DHT22;6316;48.118;-1.690;2024-03-02T12:39:09;12.30;99.90
12504;DHT22;6316;48.118;-1.690;2024-03-02T12:41:38;12.30;99.90
12504;DHT22;6316;48.118;-1.690;2024-03-02T12:44:07;12.40;99.90
12504;DHT22;6316;48.118;-1.690;2024-03-02T12:46:32;12.50;99.90
12504;DHT22;6316;48.118;-1.690;2024-03-02T12:49:04;12.50;99.90
12504;DHT22;6316;48.118;-1.690;2024-03-02T12:51:30;12.60;99.90
12504;DHT22;6316;48.118;-1.690;2024-03-02T12:53:57;12.60;99.90
12504;DHT22;6316;48.118;-1.690;2024-03-02T12:56:24;12.50;99.90
12504;DHT22;6316;48.118;-1.690;2024-03-02T12:58:59;12.50;99.90
12504;DHT22;6316;48.118;-1.690;2024-03-02T13:01:25;12.50;99.90
12504;DHT22;6316;48.118;-1.690;2024-03-02T13:03:52;12.50;99.90
12504;DHT22;6316;48.118;-1.690;2024-03-02T13:06:19;12.60;99.90
12504;DHT22;6316;48.118;-1.690;2024-03-02T13:08:45;12.60;99.90
12504;DHT22;6316;48.118;-1.690;2024-03-02T13:11:12;12.70;99.90
12504;DHT22;6316;48.118;-1.690;2024-03-02T13:13:39;12.70;99.90
12504;DHT22;6316;48.118;-1.690;2024-03-02T13:16:09;12.80;99.90
12504;DHT22;6316;48.118;-1.690;2024-03-02T13:18:36;12.90;99.90
12504;DHT22;6316;48.118;-1.690;2024-03-02T13:21:02;13.00;99.90
12504;DHT22;6316;48.118;-1.690;2024-03-02T13:23:28;13.10;99.90
12504;DHT22;6316;48.118;-1.690;2024-03-02T13:25:56;13.10;99.90
12504;DHT22;6316;48.118;-1.690;2024-03-02T13:28:24;13.10;99.90
12504;DHT22;6316;48.118;-1.690;2024-03-02T13:30:49;13.10;99.90
12504;DHT22;6316;48.118;-1.690;2024-03-02T13:33:15;13.00;99.90
12504;DHT22;6316;48.118;-1.690;2024-03-02T13:35:40;13.00;99.90
12504;DHT22;6316;48.118;-1.690;2024-03-02T13:38:06;12.90;99.90
12504;DHT22;6316;48.118;-1.690;2024-03-02T13:40:32;12.80;99.90
12504;DHT22;6316;48.118;-1.690;2024-03-02T13:43:01;12.70;99.90
12504;DHT22;6316;48.118;-1.690;2024-03-02T13:45:27;12.70;99.90
12504;DHT22;6316;48.118;-1.690;2024-03-02T13:47:53;12.70;99.90
12504;DHT22;6316;48.118;-1.690;2024-03-02T13:50:19;12.70;99.90
12504;DHT22;6316;48.118;-1.690;2024-03-02T13:52:45;12.60;99.90
12504;DHT22;6316;48.118;-1.690;2024-03-02T13:55:11;12.60;99.90
12504;DHT22;6316;48.118;-1.690;2024-03-02T13:57:36;12.60;99.90
12504;DHT22;6316;48.118;-1.690;2024-03-02T14:00:03;12.60;99.90
12504;DHT22;6316;48.118;-1.690;2024-03-02T14:02:29;12.60;99.90
12504;DHT22;6316;48.118;-1.690;2024-03-02T14:04:54;12.60;99.90
12504;DHT22;6316;48.118;-1.690;2024-03-02T14:07:20;12.60;99.90
12504;DHT22;6316;48.118;-1.690;2024-03-02T14:09:46;12.60;99.90
12504;DHT22;6316;48.118;-1.690;2024-03-02T14:12:12;12.60;99.90
12504;DHT22;6316;48.118;-1.690;2024-03-02T14:14:39;12.60;99.90
12504;DHT22;6316;48.118;-1.690;2024-03-02T14:17:04;12.60;99.90
12504;DHT22;6316;48.118;-1.690;2024-03-02T14:19:31;12.50;99.90
12504;DHT22;6316;48.118;-1.690;2024-03-02T14:21:57;12.60;99.90
12504;DHT22;6316;48.118;-1.690;2024-03-02T14:24:23;12.60;99.90
12504;DHT22;6316;48.118;-1.690;2024-03-02T14:26:51;12.60;99.90
12504;DHT22;6316;48.118;-1.690;2024-03-02T14:29:18;12.70;99.90
12504;DHT22;6316;48.118;-1.690;2024-03-02T14:31:43;12.70;99.90
12504;DHT22;6316;48.118;-1.690;2024-03-02T14:34:12;12.70;99.90
12504;DHT22;6316;48.118;-1.690;2024-03-02T14:36:38;12.80;99.90
12504;DHT22;6316;48.118;-1.690;2024-03-02T14:39:03;12.80;99.90
12504;DHT22;6316;48.118;-1.690;2024-03-02T14:41:29;12.80;99.90
12504;DHT22;6316;48.118;-1.690;2024-03-02T14:43:55;12.80;99.90
12504;DHT22;6316;48.118;-1.690;2024-03-02T14:46:20;12.70;99.90
12504;DHT22;6316;48.118;-1.690;2024-03-02T14:48:46;12.70;99.90
12504;DHT22;6316;48.118;-1.690;2024-03-02T14:51:13;12.60;99.90
12504;DHT22;6316;48.118;-1.690;2024-03-02T14:53:38;12.60;99.90
12504;DHT22;6316;48.118;-1.690;2024-03-02T14:56:05;12.50;99.90
12504;DHT22;6316;48.118;-1.690;2024-03-02T14:58:31;12.50;99.90
12504;DHT22;6316;48.118;-1.690;2024-03-02T15:00:56;12.50;99.90
12504;DHT22;6316;48.118;-1.690;2024-03-02T15:03:22;12.50;99.90
12504;DHT22;6316;48.118;-1.690;2024-03-02T15:05:47;12.40;99.90
12504;DHT22;6316;48.118;-1.690;2024-03-02T15:08:17;12.30;99.90
12504;DHT22;6316;48.118;-1.690;2024-03-02T15:10:42;12.30;99.90
12504;DHT22;6316;48.118;-1.690;2024-03-02T15:13:08;12.20;99.90
12504;DHT22;6316;48.118;-1.690;2024-03-02T15:15:34;12.20;99.90
12504;DHT22;6316;48.118;-1.690;2024-03-02T15:17:59;12.10;99.90
12504;DHT22;6316;48.118;-1.690;2024-03-02T15:20:25;12.00;99.90
12504;DHT22;6316;48.118;-1.690;2024-03-02T15:22:51;12.00;99.90
12504;DHT22;6316;48.118;-1.690;2024-03-02T15:25:16;11.90;99.90
12504;DHT22;6316;48.118;-1.690;2024-03-02T15:27:42;11.90;99.90
12504;DHT22;6316;48.118;-1.690;2024-03-02T15:30:08;12.00;99.90
12504;DHT22;6316;48.118;-1.690;2024-03-02T15:32:34;12.00;99.90
12504;DHT22;6316;48.118;-1.690;2024-03-02T15:35:02;12.10;99.90
12504;DHT22;6316;48.118;-1.690;2024-03-02T15:37:28;12.10;99.90
12504;DHT22;6316;48.118;-1.690;2024-03-02T15:39:53;12.10;99.90
12504;DHT22;6316;48.118;-1.690;2024-03-02T15:42:19;12.10;99.90
12504;DHT22;6316;48.118;-1.690;2024-03-02T15:44:48;12.10;99.90
12504;DHT22;6316;48.118;-1.690;2024-03-02T15:47:14;12.10;99.90
12504;DHT22;6316;48.118;-1.690;2024-03-02T15:49:40;12.20;99.90
12504;DHT22;6316;48.118;-1.690;2024-03-02T15:52:06;12.10;99.90
12504;DHT22;6316;48.118;-1.690;2024-03-02T15:54:31;12.00;99.90
12504;DHT22;6316;48.118;-1.690;2024-03-02T15:56:57;12.00;99.90